Time;durP1;ratioP1;P1;durP2;ratioP2;P2;SDS_P1;SDS_P2;PMS_P1;PMS_P2;Temp;Humidity;BMP_temperature;BMP_pressure;BME280_temperature;BME280_humidity;BME280_pressure;Samples;Min_cycle;Max_cycle;Signal;HPM_P1;HPM_P2
2022/10/05 00:00:20;;;;;;;10.95;5.60;;;9.30;99.90;;;;;;4932227;29;20055;-69
2022/10/05 00:02:51;;;;;;;9.07;5.03;;;9.30;99.90;;;;;;4953726;29;20038;-71
2022/10/05 00:05:28;;;;;;;11.57;5.40;;;9.30;99.90;;;;;;4952703;28;20560;-69
2022/10/05 00:08:07;;;;;;;11.55;5.63;;;9.20;99.90;;;;;;4947806;28;20042;-69
2022/10/05 00:10:34;;;;;;;9.77;5.32;;;9.20;99.90;;;;;;4937245;29;20067;-68
2022/10/05 00:13:05;;;;;;;16.20;5.65;;;9.20;99.90;;;;;;4953760;28;20129;-68
2022/10/05 00:15:32;;;;;;;10.00;5.20;;;9.20;99.90;;;;;;4921188;29;20425;-69
2022/10/05 00:18:01;;;;;;;11.60;5.18;;;9.20;99.90;;;;;;4952546;29;20047;-68
2022/10/05 00:20:29;;;;;;;12.35;5.18;;;9.20;99.90;;;;;;4953731;28;20067;-69
2022/10/05 00:23:03;;;;;;;13.80;5.13;;;9.20;99.90;;;;;;4953371;28;20047;-68
2022/10/05 00:25:30;;;;;;;7.65;4.68;;;9.20;99.90;;;;;;4952347;29;20046;-67
2022/10/05 00:28:00;;;;;;;10.02;5.32;;;9.10;99.90;;;;;;4953482;28;20054;-68
2022/10/05 00:30:32;;;;;;;9.18;5.15;;;9.10;99.90;;;;;;4952118;28;20043;-68
2022/10/05 00:33:00;;;;;;;14.80;5.95;;;9.10;99.90;;;;;;4952031;29;20133;-68
2022/10/05 00:35:28;;;;;;;11.63;5.50;;;9.20;99.90;;;;;;4947503;29;20070;-69
2022/10/05 00:37:55;;;;;;;9.40;5.22;;;9.20;99.90;;;;;;4951233;29;20518;-68
2022/10/05 00:40:44;;;;;;;8.50;5.00;;;9.20;99.90;;;;;;4953245;28;20067;-68
2022/10/05 00:43:21;;;;;;;10.00;5.40;;;9.20;99.90;;;;;;4948569;29;20531;-68
2022/10/05 00:46:14;;;;;;;9.77;5.30;;;9.20;99.90;;;;;;4923574;29;20148;-69
2022/10/05 00:49:23;;;;;;;10.77;4.95;;;9.20;99.90;;;;;;4919542;29;20122;-68
2022/10/05 00:52:18;;;;;;;9.65;5.05;;;9.20;99.90;;;;;;4956227;28;20066;-68
2022/10/05 00:54:55;;;;;;;11.38;5.28;;;9.20;99.90;;;;;;4964641;28;20047;-68
2022/10/05 00:57:28;;;;;;;10.63;5.25;;;9.20;99.90;;;;;;4948167;28;20236;-68
2022/10/05 01:00:07;;;;;;;8.63;5.10;;;9.20;99.90;;;;;;4942297;28;20051;-68
2022/10/05 01:02:46;;;;;;;12.77;5.00;;;9.20;99.90;;;;;;4952473;28;20104;-68
2022/10/05 01:05:47;;;;;;;10.57;6.03;;;9.20;99.90;;;;;;4942250;29;20122;-70
2022/10/05 01:08:40;;;;;;;11.02;5.25;;;9.10;99.90;;;;;;4907289;29;20498;-69
2022/10/05 01:11:22;;;;;;;9.35;4.78;;;9.00;99.90;;;;;;4933933;29;20051;-70
2022/10/05 01:13:57;;;;;;;;;;;8.90;99.90;;;;;;4950206;28;20049;-70
2022/10/05 01:16:48;;;;;;;7.60;5.40;;;8.90;99.90;;;;;;4932691;29;19930;-69
2022/10/05 01:19:50;;;;;;;9.45;4.95;;;8.80;99.90;;;;;;4930219;28;20573;-71
2022/10/05 01:22:38;;;;;;;10.93;5.43;;;8.80;99.90;;;;;;4949216;29;20441;-69
2022/10/05 01:25:24;;;;;;;10.02;5.00;;;8.70;99.90;;;;;;4932859;29;20051;-68
2022/10/05 01:28:21;;;;;;;10.48;4.97;;;8.70;99.90;;;;;;4946897;28;20416;-68
2022/10/05 01:31:18;;;;;;;12.40;5.32;;;8.60;99.90;;;;;;4934096;29;20463;-68
2022/10/05 01:34:07;;;;;;;10.25;5.65;;;8.60;99.90;;;;;;4949369;29;20043;-69
2022/10/05 01:37:05;;;;;;;13.57;5.88;;;8.60;99.90;;;;;;4937414;28;20047;-68
2022/10/05 01:39:32;;;;;;;10.23;5.82;;;8.50;99.90;;;;;;4949860;29;20044;-68
2022/10/05 01:42:14;;;;;;;8.88;4.97;;;8.50;99.90;;;;;;4933277;29;20055;-68
2022/10/05 01:44:55;;;;;;;11.18;5.85;;;8.40;99.90;;;;;;4941192;29;20509;-68
2022/10/05 01:47:25;;;;;;;9.43;5.45;;;8.40;99.90;;;;;;4951806;28;20046;-68
2022/10/05 01:50:01;;;;;;;10.38;5.82;;;8.40;99.90;;;;;;4940331;29;20051;-68
2022/10/05 01:52:37;;;;;;;9.77;5.85;;;8.40;99.90;;;;;;4931779;29;20549;-68
2022/10/05 01:55:23;;;;;;;12.02;6.47;;;8.40;99.90;;;;;;4955494;28;20069;-68
2022/10/05 01:58:12;;;;;;;11.32;5.70;;;8.40;99.90;;;;;;4949059;29;20528;-68
2022/10/05 02:01:11;;;;;;;11.02;6.45;;;8.50;99.90;;;;;;4963501;28;20445;-69
2022/10/05 02:03:52;;;;;;;9.75;6.38;;;8.50;99.90;;;;;;4943351;29;20413;-67
2022/10/05 02:06:23;;;;;;;11.20;5.27;;;8.50;99.90;;;;;;4953345;28;20476;-69
2022/10/05 02:09:03;;;;;;;10.52;6.05;;;8.50;99.90;;;;;;4947447;29;20318;-69
2022/10/05 02:11:32;;;;;;;11.88;6.00;;;8.50;99.90;;;;;;4950562;28;20098;-70
2022/10/05 02:14:06;;;;;;;9.00;5.65;;;8.40;99.90;;;;;;4950150;29;20573;-69
2022/10/05 02:16:45;;;;;;;9.27;5.55;;;8.40;99.90;;;;;;4950868;28;20039;-68
2022/10/05 02:19:38;;;;;;;11.30;6.40;;;8.40;99.90;;;;;;4950774;28;20485;-68
2022/10/05 02:22:31;;;;;;;11.80;6.07;;;8.30;99.90;;;;;;4933647;29;20043;-71
2022/10/05 02:25:06;;;;;;;9.40;5.57;;;8.30;99.90;;;;;;4949300;28;20058;-68
2022/10/05 02:27:42;;;;;;;12.27;6.18;;;8.30;99.90;;;;;;4940136;29;20043;-69
2022/10/05 02:30:10;;;;;;;11.15;5.40;;;8.30;99.90;;;;;;4946552;29;20043;-68
2022/10/05 02:33:08;;;;;;;11.93;6.07;;;8.30;99.90;;;;;;4937362;28;20492;-68
2022/10/05 02:35:35;;;;;;;11.82;5.72;;;8.40;99.90;;;;;;4948521;28;20069;-69
2022/10/05 02:38:18;;;;;;;14.68;6.47;;;8.40;99.90;;;;;;4965749;28;20040;-68
2022/10/05 02:41:16;;;;;;;11.43;5.85;;;8.40;99.90;;;;;;4950240;29;20050;-69
2022/10/05 02:44:08;;;;;;;11.23;6.18;;;8.40;99.90;;;;;;4944351;29;20066;-68
2022/10/05 02:47:14;;;;;;;10.32;5.88;;;8.50;99.90;;;;;;4940141;29;20041;-68
2022/10/05 02:49:59;;;;;;;13.25;6.75;;;8.50;99.90;;;;;;4941814;29;20118;-67
2022/10/05 02:52:35;;;;;;;14.40;6.57;;;8.50;99.90;;;;;;4917449;28;20059;-69
2022/10/05 02:55:50;;;;;;;11.75;5.82;;;8.50;99.90;;;;;;4959031;28;20039;-68
2022/10/05 02:58:26;;;;;;;10.23;5.95;;;8.50;99.90;;;;;;4954445;28;20047;-69
2022/10/05 03:01:06;;;;;;;13.30;6.25;;;8.50;99.90;;;;;;4939636;28;20043;-67
2022/10/05 03:03:40;;;;;;;9.90;6.13;;;8.50;99.90;;;;;;4936199;28;20086;-69
2022/10/05 03:06:18;;;;;;;10.18;5.85;;;8.40;99.90;;;;;;4954479;28;20043;-69
2022/10/05 03:08:58;;;;;;;10.15;6.10;;;8.40;99.90;;;;;;4959398;28;20035;-70
2022/10/05 03:11:33;;;;;;;11.48;6.88;;;8.40;99.90;;;;;;4955322;28;20051;-69
2022/10/05 03:14:17;;;;;;;9.38;5.70;;;8.40;99.90;;;;;;4953694;29;20052;-69
2022/10/05 03:17:03;;;;;;;12.93;7.25;;;8.40;99.90;;;;;;4943575;29;20470;-69
2022/10/05 03:20:10;;;;;;;11.50;7.20;;;8.40;99.90;;;;;;4954564;28;20047;-69
2022/10/05 03:22:51;;;;;;;11.63;6.28;;;8.40;99.90;;;;;;4915168;29;20138;-68
2022/10/05 03:25:31;;;;;;;11.25;7.03;;;8.50;99.90;;;;;;4916816;29;20518;-69
2022/10/05 03:28:12;;;;;;;11.65;6.65;;;8.50;99.90;;;;;;4917290;29;20146;-68
2022/10/05 03:31:24;;;;;;;14.02;7.03;;;8.60;99.90;;;;;;4917142;29;20043;-69
2022/10/05 03:34:05;;;;;;;13.25;6.75;;;8.60;99.90;;;;;;4894166;29;20060;-69
2022/10/05 03:36:39;;;;;;;11.02;6.32;;;8.60;99.90;;;;;;4915436;29;20111;-70
2022/10/05 03:39:27;;;;;;;17.20;7.00;;;8.60;99.90;;;;;;4944401;29;20057;-69
2022/10/05 03:42:15;;;;;;;13.82;6.63;;;8.50;99.90;;;;;;4916146;29;20541;-70
2022/10/05 03:45:21;;;;;;;16.35;7.18;;;8.50;99.90;;;;;;4901552;29;20150;-69
2022/10/05 03:48:18;;;;;;;15.50;7.55;;;8.50;99.90;;;;;;4901575;29;20048;-69
2022/10/05 03:50:56;;;;;;;11.85;6.82;;;8.50;99.90;;;;;;4885999;29;20063;-71
2022/10/05 03:53:34;;;;;;;14.98;7.40;;;8.50;99.90;;;;;;4931950;29;20051;-69
2022/10/05 03:56:19;;;;;;;11.57;7.22;;;8.50;99.90;;;;;;4917659;29;20340;-69
2022/10/05 03:59:07;;;;;;;15.75;7.35;;;8.50;99.90;;;;;;4933486;28;20468;-70
2022/10/05 04:01:41;;;;;;;16.50;7.20;;;8.60;99.90;;;;;;4937036;28;20054;-69
2022/10/05 04:04:18;;;;;;;13.80;7.28;;;8.60;99.90;;;;;;4923469;29;20066;-69
2022/10/05 04:06:53;;;;;;;12.30;6.55;;;8.60;99.90;;;;;;4951496;28;20046;-70
2022/10/05 04:09:31;;;;;;;16.52;6.80;;;8.60;99.90;;;;;;4939165;29;20059;-69
2022/10/05 04:12:31;;;;;;;11.45;6.95;;;8.60;99.90;;;;;;4936476;29;20154;-69
2022/10/05 04:15:06;;;;;;;11.05;7.28;;;8.70;99.90;;;;;;4936896;29;20588;-69
2022/10/05 04:17:41;;;;;;;12.15;6.47;;;8.60;99.90;;;;;;4953857;28;20375;-69
2022/10/05 04:20:28;;;;;;;14.27;6.75;;;8.60;99.90;;;;;;4932259;29;20044;-69
2022/10/05 04:23:06;;;;;;;12.60;7.68;;;8.60;99.90;;;;;;4958396;28;20126;-69
2022/10/05 04:25:40;;;;;;;13.18;7.18;;;8.60;99.90;;;;;;4934564;29;20324;-69
2022/10/05 04:28:26;;;;;;;12.93;6.95;;;8.50;99.90;;;;;;4965568;28;20073;-69
2022/10/05 04:31:02;;;;;;;10.38;6.60;;;8.50;99.90;;;;;;4950235;29;20550;-70
2022/10/05 04:33:30;;;;;;;12.15;6.82;;;8.50;99.90;;;;;;4951992;28;20107;-69
2022/10/05 04:36:19;;;;;;;11.23;6.97;;;8.50;99.90;;;;;;4936861;29;20151;-70
2022/10/05 04:38:53;;;;;;;11.27;6.57;;;8.40;99.90;;;;;;4962454;28;20149;-70
2022/10/05 04:41:43;;;;;;;13.52;7.20;;;8.40;99.90;;;;;;4951072;29;20051;-69
2022/10/05 04:44:35;;;;;;;12.55;7.03;;;8.30;99.90;;;;;;4955198;28;20040;-68
2022/10/05 04:47:09;;;;;;;12.98;7.35;;;8.30;99.90;;;;;;4973332;28;20042;-69
2022/10/05 04:49:55;;;;;;;12.38;7.07;;;8.20;99.90;;;;;;4951291;29;20043;-69
2022/10/05 04:52:50;;;;;;;10.57;7.28;;;8.20;99.90;;;;;;4950790;29;20050;-68
2022/10/05 04:55:58;;;;;;;14.07;6.75;;;8.10;99.90;;;;;;4951343;28;20588;-70
2022/10/05 04:58:39;;;;;;;16.05;9.50;;;8.10;99.90;;;;;;4931170;29;20186;-69
2022/10/05 05:01:46;;;;;;;11.60;6.97;;;8.00;99.90;;;;;;4951708;29;20371;-70
2022/10/05 05:04:20;;;;;;;10.60;6.95;;;8.00;99.90;;;;;;4964634;28;20588;-70
2022/10/05 05:07:23;;;;;;;11.90;7.85;;;8.00;99.90;;;;;;4946700;28;20058;-71
2022/10/05 05:09:59;;;;;;;;;;;7.90;99.90;;;;;;4949492;29;20052;-69
2022/10/05 05:12:40;;;;;;;15.57;7.18;;;7.90;99.90;;;;;;4950834;29;19926;-71
2022/10/05 05:15:46;;;;;;;11.93;7.80;;;7.90;99.90;;;;;;4953545;28;20040;-69
2022/10/05 05:18:19;;;;;;;12.15;7.80;;;7.90;99.90;;;;;;4938281;29;20538;-69
2022/10/05 05:20:54;;;;;;;15.45;8.77;;;7.90;99.90;;;;;;4951374;29;20039;-70
2022/10/05 05:23:49;;;;;;;15.18;9.15;;;7.90;99.90;;;;;;4963292;28;20500;-69
2022/10/05 05:26:27;;;;;;;14.30;8.88;;;8.00;99.90;;;;;;4947568;28;20050;-69
2022/10/05 05:29:16;;;;;;;14.77;8.77;;;8.00;99.90;;;;;;4947800;29;20048;-69
2022/10/05 05:32:03;;;;;;;13.30;8.52;;;8.10;99.90;;;;;;4951045;29;20146;-69
2022/10/05 05:34:42;;;;;;;14.82;9.05;;;8.10;99.90;;;;;;4935084;29;20686;-70
2022/10/05 05:37:36;;;;;;;16.13;9.15;;;8.20;99.90;;;;;;4947383;28;20044;-70
2022/10/05 05:40:19;;;;;;;17.50;9.02;;;8.20;99.90;;;;;;4965932;28;20497;-69
2022/10/05 05:42:50;;;;;;;16.80;9.27;;;8.30;99.90;;;;;;4963235;28;20035;-69
2022/10/05 05:45:32;;;;;;;17.00;9.20;;;8.40;99.90;;;;;;4950303;28;20656;-69
2022/10/05 05:48:04;;;;;;;17.08;8.20;;;8.40;99.90;;;;;;4950701;29;20051;-68
2022/10/05 05:50:31;;;;;;;15.48;9.00;;;8.50;99.90;;;;;;4950795;29;20307;-68
2022/10/05 05:53:25;;;;;;;12.55;7.53;;;8.50;99.90;;;;;;4934510;29;20459;-71
2022/10/05 05:56:19;;;;;;;13.93;8.10;;;8.60;99.90;;;;;;4935161;29;20047;-72
2022/10/05 05:58:58;;;;;;;14.45;7.75;;;8.70;99.90;;;;;;4950273;28;20161;-70
2022/10/05 06:02:04;;;;;;;15.13;8.48;;;8.70;99.90;;;;;;4947943;29;20138;-69
2022/10/05 06:04:44;;;;;;;13.90;8.20;;;8.80;99.90;;;;;;4947951;28;20069;-70
2022/10/05 06:07:20;;;;;;;14.60;8.15;;;8.80;99.90;;;;;;4948846;29;20137;-70
2022/10/05 06:09:58;;;;;;;15.32;8.93;;;8.90;99.90;;;;;;4964038;28;20598;-72
2022/10/05 06:12:40;;;;;;;16.08;8.70;;;8.90;99.90;;;;;;4963304;28;20473;-71
2022/10/05 06:15:41;;;;;;;19.42;9.10;;;9.00;99.90;;;;;;4933750;29;20051;-71
2022/10/05 06:18:15;;;;;;;18.20;8.75;;;9.00;99.90;;;;;;4951182;28;20122;-72
2022/10/05 06:21:05;;;;;;;17.67;9.07;;;9.10;99.90;;;;;;4951627;28;20446;-72
2022/10/05 06:24:01;;;;;;;17.35;8.93;;;9.10;99.90;;;;;;4956006;28;20071;-71
2022/10/05 06:26:52;;;;;;;14.13;8.70;;;9.20;99.90;;;;;;4934513;29;20840;-71
2022/10/05 06:29:23;;;;;;;15.70;8.63;;;9.20;99.90;;;;;;4924299;29;20346;-71
2022/10/05 06:32:27;;;;;;;14.80;8.93;;;9.30;99.90;;;;;;4953274;28;20043;-71
2022/10/05 06:35:14;;;;;;;18.92;9.95;;;9.40;99.90;;;;;;4942393;29;20055;-71
2022/10/05 06:38:07;;;;;;;16.88;9.20;;;9.50;99.90;;;;;;4950250;28;20043;-71
2022/10/05 06:40:54;;;;;;;14.30;9.30;;;9.60;99.90;;;;;;4950104;28;20093;-71
2022/10/05 06:43:57;;;;;;;16.10;10.32;;;9.60;99.90;;;;;;4949815;28;20043;-70
2022/10/05 06:46:52;;;;;;;15.27;9.43;;;9.70;99.90;;;;;;4944978;28;20048;-70
2022/10/05 06:49:53;;;;;;;18.17;9.93;;;9.90;99.90;;;;;;4958360;28;20035;-70
2022/10/05 06:52:58;;;;;;;16.55;10.00;;;10.00;99.90;;;;;;4949548;28;20125;-71
2022/10/05 06:55:47;;;;;;;16.75;9.90;;;10.20;99.90;;;;;;4944450;29;20043;-71
2022/10/05 06:58:20;;;;;;;21.85;9.93;;;10.20;99.90;;;;;;4960031;28;20085;-70
2022/10/05 07:01:10;;;;;;;17.92;10.48;;;10.30;99.90;;;;;;4946955;29;20091;-72
2022/10/05 07:04:06;;;;;;;14.35;9.43;;;10.40;99.90;;;;;;4938659;29;20039;-72
2022/10/05 07:07:01;;;;;;;15.13;9.43;;;10.50;99.90;;;;;;4950242;28;20061;-73
2022/10/05 07:10:03;;;;;;;20.08;11.65;;;10.60;99.90;;;;;;4933458;29;20071;-72
2022/10/05 07:12:56;;;;;;;15.48;9.93;;;10.70;99.90;;;;;;4931983;29;20092;-70
2022/10/05 07:15:49;;;;;;;20.15;10.13;;;10.80;99.90;;;;;;4958079;28;20043;-71
2022/10/05 07:18:44;;;;;;;17.50;10.02;;;10.90;99.90;;;;;;4933919;29;20150;-71
2022/10/05 07:21:52;;;;;;;15.10;10.32;;;11.00;99.90;;;;;;4933719;28;21109;-70
2022/10/05 07:24:42;;;;;;;17.45;10.90;;;11.10;99.90;;;;;;4926145;29;20446;-69
2022/10/05 07:27:19;;;;;;;16.55;10.20;;;11.20;99.90;;;;;;4952253;28;20031;-72
2022/10/05 07:30:06;;;;;;;14.05;9.75;;;11.30;99.90;;;;;;4952841;28;20049;-71
2022/10/05 07:32:54;;;;;;;19.15;9.45;;;11.30;99.90;;;;;;4961270;28;20199;-71
2022/10/05 07:38:21;;;;;;;17.30;10.02;;;11.40;99.90;;;;;;4943693;28;20055;-70
2022/10/05 07:41:05;;;;;;;13.93;9.20;;;11.50;99.90;;;;;;4961561;28;20046;-70
2022/10/05 07:43:44;;;;;;;19.40;9.55;;;11.60;99.90;;;;;;4960320;28;20034;-71
2022/10/05 07:46:43;;;;;;;17.98;10.13;;;11.70;99.90;;;;;;4951667;29;20035;-70
2022/10/05 07:49:25;;;;;;;16.35;10.02;;;11.90;99.90;;;;;;4953076;29;20046;-71
2022/10/05 07:52:10;;;;;;;16.15;9.80;;;11.90;99.90;;;;;;4947105;29;20055;-71
2022/10/05 07:54:55;;;;;;;16.10;10.15;;;12.00;99.90;;;;;;4942812;29;20055;-71
2022/10/05 07:57:43;;;;;;;13.68;8.93;;;12.10;99.90;;;;;;4953418;28;20475;-71
2022/10/05 08:00:19;;;;;;;15.88;9.13;;;12.20;99.90;;;;;;4951485;29;20047;-72
2022/10/05 08:02:55;;;;;;;13.80;9.38;;;12.30;99.90;;;;;;4934941;29;20043;-70
2022/10/05 08:05:29;;;;;;;14.73;10.48;;;12.30;99.90;;;;;;4955460;28;20047;-72
2022/10/05 08:08:35;;;;;;;19.00;9.95;;;12.40;99.90;;;;;;4940531;29;20043;-71
2022/10/05 08:11:25;;;;;;;14.02;10.43;;;12.50;99.90;;;;;;4941866;28;20414;-71
2022/10/05 08:14:01;;;;;;;15.00;10.52;;;12.70;99.90;;;;;;4949985;28;20429;-71
2022/10/05 08:16:34;;;;;;;15.45;10.27;;;12.80;99.90;;;;;;4954423;29;20049;-71
2022/10/05 08:19:22;;;;;;;12.50;9.38;;;12.90;99.90;;;;;;4953314;29;20067;-70
2022/10/05 08:22:09;;;;;;;13.65;9.50;;;12.90;99.90;;;;;;4953522;28;20096;-70
2022/10/05 08:24:43;;;;;;;13.88;9.90;;;13.10;99.90;;;;;;4954864;28;20478;-70
2022/10/05 08:27:16;;;;;;;15.68;9.18;;;13.20;99.90;;;;;;4955134;28;20446;-70
2022/10/05 08:30:05;;;;;;;15.77;9.48;;;13.30;99.90;;;;;;4941376;28;20450;-72
2022/10/05 08:32:49;;;;;;;14.20;9.35;;;13.50;99.90;;;;;;4952944;28;20078;-71
2022/10/05 08:35:39;;;;;;;12.95;9.07;;;13.70;99.90;;;;;;4939811;29;20468;-70
2022/10/05 08:38:16;;;;;;;16.00;9.13;;;13.80;99.90;;;;;;4952719;28;20055;-70
2022/10/05 08:41:08;;;;;;;13.45;8.75;;;13.90;99.90;;;;;;4949274;29;20099;-70
2022/10/05 08:43:41;;;;;;;;;;;14.10;99.90;;;;;;4930735;29;20383;-69
2022/10/05 08:46:34;;;;;;;13.40;9.30;;;14.20;99.90;;;;;;4953356;28;19929;-70
2022/10/05 08:49:20;;;;;;;17.55;9.82;;;14.40;99.90;;;;;;4953014;28;20070;-72
2022/10/05 08:52:15;;;;;;;11.45;8.88;;;14.40;99.90;;;;;;4952673;28;20493;-71
2022/10/05 08:54:57;;;;;;;11.77;8.50;;;14.50;99.90;;;;;;4948562;28;20466;-71
2022/10/05 08:57:28;;;;;;;;;;;14.60;99.90;;;;;;4940044;29;20055;-70
2022/10/05 09:00:13;;;;;;;13.32;8.93;;;14.80;99.90;;;;;;4948100;28;19926;-71
2022/10/05 09:03:11;;;;;;;13.38;8.90;;;15.00;99.90;;;;;;4968102;28;20415;-71
2022/10/05 09:06:16;;;;;;;14.77;8.45;;;15.20;99.90;;;;;;4953137;28;20055;-71
2022/10/05 09:08:52;;;;;;;15.68;10.32;;;15.20;99.90;;;;;;4944041;29;20043;-70
2022/10/05 09:11:46;;;;;;;14.20;9.70;;;15.30;99.90;;;;;;4952378;29;20502;-70
2022/10/05 09:14:32;;;;;;;13.02;9.10;;;15.50;99.90;;;;;;4965666;28;20058;-70
2022/10/05 09:17:34;;;;;;;12.27;8.50;;;15.80;99.90;;;;;;4941778;29;20493;-70
2022/10/05 09:20:26;;;;;;;11.38;8.50;;;15.90;99.90;;;;;;4939566;29;20047;-71
2022/10/05 09:23:30;;;;;;;10.52;8.55;;;16.10;99.90;;;;;;4949584;28;20593;-71
2022/10/05 09:26:08;;;;;;;13.68;9.00;;;16.10;99.90;;;;;;4954351;28;20051;-71
2022/10/05 09:29:00;;;;;;;13.73;9.10;;;16.20;99.90;;;;;;4949928;29;20035;-71
2022/10/05 09:31:55;;;;;;;16.17;8.75;;;16.50;99.90;;;;;;4945328;28;20145;-71
2022/10/05 09:34:23;;;;;;;14.13;9.10;;;16.70;99.90;;;;;;4959644;28;20051;-71
2022/10/05 09:37:07;;;;;;;13.07;8.68;;;16.80;99.90;;;;;;4921359;29;20106;-72
2022/10/05 09:39:58;;;;;;;14.07;8.60;;;16.90;99.90;;;;;;4962851;28;20413;-71
2022/10/05 09:43:17;;;;;;;14.18;8.10;;;16.80;99.90;;;;;;4951387;28;20114;-71
2022/10/05 09:45:57;;;;;;;11.93;8.35;;;17.00;99.90;;;;;;4951735;28;20063;-71
2022/10/05 09:48:51;;;;;;;12.93;8.35;;;17.10;99.90;;;;;;4960976;28;20047;-71
2022/10/05 09:51:24;;;;;;;12.52;8.60;;;17.20;99.90;;;;;;4945412;28;20185;-71
2022/10/05 09:54:15;;;;;;;13.25;9.07;;;17.20;99.90;;;;;;4947873;28;20052;-71
2022/10/05 09:56:55;;;;;;;12.93;7.88;;;17.30;99.90;;;;;;4949486;28;20055;-71
2022/10/05 09:59:56;;;;;;;11.65;7.75;;;17.50;99.90;;;;;;4945646;28;20454;-71
2022/10/05 10:02:41;;;;;;;9.13;7.38;;;17.70;99.90;;;;;;4950473;28;20058;-71
2022/10/05 10:05:48;;;;;;;11.18;8.45;;;17.80;99.90;;;;;;4942896;28;20514;-71
2022/10/05 10:08:41;;;;;;;10.50;8.23;;;18.10;99.90;;;;;;4930245;28;20054;-72
2022/10/05 10:11:08;;;;;;;9.35;8.15;;;18.10;99.90;;;;;;4935861;28;20049;-71
2022/10/05 10:14:00;;;;;;;9.32;7.93;;;18.20;99.90;;;;;;4944077;28;20059;-71
2022/10/05 10:17:01;;;;;;;9.95;7.35;;;18.30;99.90;;;;;;4926713;28;20051;-71
2022/10/05 10:19:40;;;;;;;10.55;7.93;;;18.40;99.90;;;;;;4950426;28;20075;-71
2022/10/05 10:22:16;;;;;;;9.13;7.50;;;18.60;99.90;;;;;;4949722;28;20074;-72
2022/10/05 10:25:17;;;;;;;11.57;7.70;;;18.70;99.90;;;;;;4944769;28;20039;-73
2022/10/05 10:27:59;;;;;;;9.90;7.35;;;19.00;99.90;;;;;;4951143;28;20511;-71
2022/10/05 10:30:45;;;;;;;10.18;7.00;;;19.10;99.90;;;;;;4948212;29;20051;-71
2022/10/05 10:33:50;;;;;;;10.95;7.68;;;19.20;99.90;;;;;;4918364;29;20063;-71
2022/10/05 10:36:31;;;;;;;10.15;7.55;;;19.20;99.90;;;;;;4950213;28;20051;-72
2022/10/05 10:39:23;;;;;;;9.60;7.28;;;19.40;99.90;;;;;;4937367;29;20048;-70
2022/10/05 10:42:11;;;;;;;7.68;6.63;;;19.90;99.90;;;;;;4950336;28;20039;-71
2022/10/05 10:44:47;;;;;;;13.85;8.73;;;20.20;99.90;;;;;;4964760;28;20039;-70
2022/10/05 10:47:18;;;;;;;9.57;7.45;;;20.30;99.90;;;;;;4948349;29;20395;-71
2022/10/05 10:49:45;;;;;;;12.73;7.35;;;20.30;99.90;;;;;;4950570;28;20144;-70
2022/10/05 10:52:45;;;;;;;10.88;7.43;;;20.50;99.90;;;;;;4948704;29;20051;-71
2022/10/05 10:55:28;;;;;;;8.57;7.15;;;20.80;99.90;;;;;;4949197;29;20110;-72
2022/10/05 10:58:14;;;;;;;11.25;7.18;;;21.00;99.90;;;;;;4950027;28;20494;-72
2022/10/05 11:01:23;;;;;;;10.23;6.88;;;21.20;99.90;;;;;;4948728;29;20522;-72
2022/10/05 11:03:56;;;;;;;8.50;6.50;;;21.30;99.90;;;;;;4953988;28;20509;-72
2022/10/05 11:06:36;;;;;;;9.63;6.20;;;21.30;99.90;;;;;;4931849;29;20074;-71
2022/10/05 11:09:40;;;;;;;9.02;6.70;;;21.50;99.90;;;;;;4944850;29;20520;-71
2022/10/05 11:12:35;;;;;;;7.53;6.38;;;21.80;99.90;;;;;;4950059;28;20513;-71
2022/10/05 11:15:30;;;;;;;11.27;6.95;;;21.70;99.90;;;;;;4949791;28;20066;-74
2022/10/05 11:18:12;;;;;;;8.38;6.88;;;21.70;99.90;;;;;;4954863;28;20496;-69
2022/10/05 11:21:15;;;;;;;12.93;7.32;;;21.50;99.90;;;;;;4955349;28;20354;-70
2022/10/05 11:24:29;;;;;;;9.32;6.60;;;21.40;99.90;;;;;;4942272;28;20051;-70
2022/10/05 11:27:34;;;;;;;7.15;6.40;;;21.60;99.90;;;;;;4983754;28;20127;-70
2022/10/05 11:30:29;;;;;;;7.05;5.93;;;21.80;99.90;;;;;;4975217;28;20444;-70
2022/10/05 11:33:29;;;;;;;8.82;6.60;;;21.60;99.90;;;;;;4974615;28;20129;-70
2022/10/05 11:36:18;;;;;;;8.52;6.25;;;21.80;99.90;;;;;;4980993;28;20085;-69
2022/10/05 11:39:01;;;;;;;6.63;6.03;;;22.20;99.90;;;;;;4983920;28;20457;-69
2022/10/05 11:41:50;;;;;;;7.38;6.13;;;22.60;99.90;;;;;;4968181;28;20640;-70
2022/10/05 11:44:52;;;;;;;10.05;8.20;;;22.70;99.90;;;;;;4967882;28;20046;-70
2022/10/05 11:47:37;;;;;;;7.78;6.93;;;22.50;99.90;;;;;;4979656;28;20058;-71
2022/10/05 11:50:49;;;;;;;11.38;6.90;;;22.50;99.90;;;;;;4981844;28;20105;-70
2022/10/05 11:53:32;;;;;;;;;;;22.60;99.90;;;;;;4990735;28;20353;-70
2022/10/05 11:56:06;;;;;;;7.05;6.10;;;22.90;99.90;;;;;;4989807;28;20388;-70
2022/10/05 11:58:33;;;;;;;7.63;6.07;;;22.80;99.90;;;;;;4941649;28;20058;-70
2022/10/05 12:01:22;;;;;;;6.80;6.10;;;22.80;99.90;;;;;;4989301;28;20142;-71
2022/10/05 12:03:55;;;;;;;8.07;6.30;;;23.00;99.90;;;;;;4936020;28;20054;-70
2022/10/05 12:06:45;;;;;;;7.63;6.25;;;23.20;99.90;;;;;;4949075;29;20043;-71
2022/10/05 12:09:32;;;;;;;9.20;5.93;;;23.20;99.90;;;;;;4930047;28;20157;-69
2022/10/05 12:12:15;;;;;;;6.53;5.80;;;23.20;99.90;;;;;;4957989;28;20486;-70
2022/10/05 12:15:01;;;;;;;8.32;5.95;;;23.20;99.90;;;;;;4967370;28;20422;-71
2022/10/05 12:17:45;;;;;;;6.40;5.80;;;23.40;99.90;;;;;;4951079;28;20705;-72
2022/10/05 12:20:18;;;;;;;7.10;5.75;;;23.80;99.90;;;;;;4948971;28;20480;-72
2022/10/05 12:22:55;;;;;;;7.43;6.50;;;23.90;99.90;;;;;;4953371;28;20067;-71
2022/10/05 12:25:33;;;;;;;7.00;5.80;;;24.20;99.90;;;;;;4941477;29;20083;-72
2022/10/05 12:28:07;;;;;;;6.80;6.20;;;24.50;99.90;;;;;;4955342;28;20505;-71
2022/10/05 12:30:56;;;;;;;9.00;6.28;;;24.70;99.90;;;;;;4934509;29;20059;-72
2022/10/05 12:33:44;;;;;;;7.00;5.72;;;25.20;99.90;;;;;;4947260;29;20355;-72
2022/10/05 12:36:29;;;;;;;6.40;5.75;;;25.40;99.90;;;;;;4956277;28;20074;-72
2022/10/05 12:39:16;;;;;;;9.27;5.65;;;25.70;99.90;;;;;;4946401;28;20039;-71
2022/10/05 12:42:07;;;;;;;8.40;5.72;;;26.00;99.90;;;;;;4949720;29;20047;-71
2022/10/05 12:44:45;;;;;;;7.28;5.40;;;26.00;99.90;;;;;;4942709;28;20055;-72
2022/10/05 12:47:19;;;;;;;7.68;5.57;;;26.70;99.90;;;;;;4952543;28;20181;-72
2022/10/05 12:49:57;;;;;;;6.45;5.50;;;26.90;99.90;;;;;;4950288;28;20482;-72
2022/10/05 12:52:31;;;;;;;6.75;6.00;;;27.70;99.90;;;;;;4957686;28;20059;-72
2022/10/05 12:55:27;;;;;;;6.30;5.70;;;28.00;99.90;;;;;;4950795;28;20047;-72
2022/10/05 12:58:31;;;;;;;6.97;6.28;;;28.50;99.90;;;;;;4958545;28;20049;-72
2022/10/05 13:01:18;;;;;;;8.90;8.02;;;28.60;99.90;;;;;;4948717;28;20447;-72
2022/10/05 13:03:59;;;;;;;7.70;5.43;;;28.60;99.90;;;;;;4949235;28;20101;-72
2022/10/05 13:06:47;;;;;;;6.43;5.15;;;28.90;99.90;;;;;;4961916;28;20049;-73
2022/10/05 13:09:22;;;;;;;5.93;5.38;;;29.10;99.90;;;;;;4950523;29;20121;-71
2022/10/05 13:12:02;;;;;;;5.93;5.35;;;29.10;99.90;;;;;;4950723;28;20043;-72
2022/10/05 13:14:50;;;;;;;6.22;5.25;;;28.70;99.90;;;;;;4948100;28;20054;-72
2022/10/05 13:17:45;;;;;;;6.82;5.50;;;28.30;99.90;;;;;;4947041;29;20150;-72
2022/10/05 13:20:41;;;;;;;6.43;5.32;;;28.10;99.90;;;;;;4948097;28;20562;-72
2022/10/05 13:23:26;;;;;;;7.18;5.60;;;28.20;99.90;;;;;;4947395;29;20070;-71
2022/10/05 13:26:02;;;;;;;6.43;5.82;;;27.90;99.90;;;;;;4946881;29;20050;-71
2022/10/05 13:28:40;;;;;;;6.82;6.20;;;27.50;99.90;;;;;;4947002;28;20423;-72
2022/10/05 13:31:18;;;;;;;6.85;5.07;;;27.50;99.90;;;;;;4948728;29;20457;-71
2022/10/05 13:34:04;;;;;;;7.20;5.43;;;27.70;99.90;;;;;;4954358;28;20044;-71
2022/10/05 13:36:50;;;;;;;5.80;5.22;;;27.80;99.90;;;;;;4947391;28;20049;-72
2022/10/05 13:39:30;;;;;;;7.18;5.65;;;27.50;99.90;;;;;;4949003;28;20039;-73
2022/10/05 13:42:11;;;;;;;7.55;5.45;;;27.60;99.90;;;;;;4950069;28;20482;-71
2022/10/05 13:45:08;;;;;;;6.38;5.75;;;27.60;99.90;;;;;;4949262;29;20042;-71
2022/10/05 13:47:53;;;;;;;6.80;5.80;;;27.50;99.90;;;;;;4964380;28;20130;-70
2022/10/05 13:50:33;;;;;;;5.55;4.97;;;27.00;99.90;;;;;;4955374;28;20043;-70
2022/10/05 13:53:13;;;;;;;7.47;5.13;;;27.00;99.90;;;;;;4940880;29;20047;-70
2022/10/05 13:55:58;;;;;;;5.97;5.38;;;26.70;99.90;;;;;;4951830;28;20058;-70
2022/10/05 13:58:46;;;;;;;6.95;5.20;;;26.60;99.90;;;;;;4949458;28;20047;-71
2022/10/05 14:01:42;;;;;;;6.03;5.30;;;26.40;99.90;;;;;;4928235;29;20114;-71
2022/10/05 14:04:27;;;;;;;6.28;5.15;;;26.70;99.90;;;;;;4947484;29;20063;-71
2022/10/05 14:06:55;;;;;;;6.20;4.78;;;26.90;99.90;;;;;;4953761;28;20049;-71
2022/10/05 14:09:32;;;;;;;5.90;4.90;;;27.10;99.90;;;;;;4950424;28;20549;-71
2022/10/05 14:12:03;;;;;;;5.40;4.90;;;27.20;99.90;;;;;;4934785;29;20063;-71
2022/10/05 14:14:40;;;;;;;6.65;5.18;;;27.00;99.90;;;;;;4954745;28;20069;-71
2022/10/05 14:17:25;;;;;;;5.55;4.90;;;26.80;99.90;;;;;;4947629;28;20044;-71
2022/10/05 14:20:02;;;;;;;7.57;5.05;;;28.00;99.90;;;;;;4960681;28;20035;-71